Syracuse, NE (68446)

2:00 PM CDT on June 28, 2017 (GMT -0500)
Hawkins Home - Northeast | | Change Station

Elev 1100 ft 40.66 °N, 96.18 °W | Updated 0 second ago

Overcast
Overcast
86.6 °F
Feels Like 96 °F
N
0.0
Wind Variable Wind from West
Gusts 0.0 mph

Today
High -- | Low -- °F
--% Chance of Precip.
Yesterday
High -- | Low -- °F
Precip. -- in
Pressure 29.70 in
Visibility 10.0 miles
Clouds Scattered Clouds 3600 ft
Scattered Clouds 4400 ft
Overcast 5000 ft
Heat Index 96 °F
Dew Point 75 °F
Humidity 68%
Rainfall 0.93 in
Snow Depth Not available.
5:56 AM 8:59 PM
Waxing Crescent, 27% visible
METAR KAFK 281835Z AUTO 22014KT 10SM SCT036 SCT044 OVC050 29/24 A2970 RMK AO2 LTG DSNT NE T02920238
Pressure 29.70 in
Visibility 10.0 miles
Clouds Scattered Clouds 3600 ft
Scattered Clouds 4400 ft
Overcast 5000 ft
Heat Index 96 °F
Dew Point 75 °F
Humidity 68%
Rainfall 0.93 in
Snow Depth Not available.
5:56 AM 8:59 PM
Waxing Crescent, 27% visible
METAR KAFK 281835Z AUTO 22014KT 10SM SCT036 SCT044 OVC050 29/24 A2970 RMK AO2 LTG DSNT NE T02920238

Get Severe Weather Alerts

Thanks for signing up!

Be on the lookout for a verification email in your inbox.

You'll start receiving the daily forecast at 6 AM.

×

10-Day Weather Forecast

Almanac

Astronomy

Jun. 28, 2017 Rise Set
Actual Time
Civil Twilight
Nautical Twilight
Astronomical Twilight
Moon
Length of Visible Light
Length of Day
Tomorrow will be .
, % of the Moon is Illuminated

Today's Extremes

State Highs State Lows

Community

WunderPhotos

Category 6

Welcome to Category 6. This is the collective home for Weather Underground's featured writeups by Dr. Jeff Masters (right), Bob Henson (left), Chris Burt, and other regular contributors.

Nearby

Air Quality

  Air Quality AQ Index Pollutant
Not available.

Snow Depth

Station Depth Elevation

Earthquake Activity

City Distance Mag. Time & Date
Minimum magnitude displayed is 2.5.

Coastal Water Temperatures

Place Temperature

Stations

Nearby Weather Stations

Station Location Temp. Windchill Dew Point Humidity Wind Precip. Elev Updated Type
                   

Watches & Warnings

There are currently no watches in effect.